sensor_id;sensor_type;location;lat;lon;timestamp;P1;durP1;ratioP1;P2;durP2;ratioP2
42094;SDS011;27753;55.724;37.612;2023-08-21T00:01:46;6.15;;;4.97;;
42094;SDS011;27753;55.724;37.612;2023-08-21T00:04:12;7.00;;;6.30;;
42094;SDS011;27753;55.724;37.612;2023-08-21T00:06:38;6.33;;;5.73;;
42094;SDS011;27753;55.724;37.612;2023-08-21T00:09:04;8.88;;;6.28;;
42094;SDS011;27753;55.724;37.612;2023-08-21T00:11:30;8.32;;;7.50;;
42094;SDS011;27753;55.724;37.612;2023-08-21T00:13:56;8.02;;;7.22;;
42094;SDS011;27753;55.724;37.612;2023-08-21T00:16:22;8.10;;;6.72;;
42094;SDS011;27753;55.724;37.612;2023-08-21T00:18:48;8.18;;;6.63;;
42094;SDS011;27753;55.724;37.612;2023-08-21T00:21:14;8.68;;;7.65;;
42094;SDS011;27753;55.724;37.612;2023-08-21T00:23:42;9.57;;;8.23;;
42094;SDS011;27753;55.724;37.612;2023-08-21T00:26:09;7.80;;;7.00;;
42094;SDS011;27753;55.724;37.612;2023-08-21T00:28:35;10.18;;;7.95;;
42094;SDS011;27753;55.724;37.612;2023-08-21T00:31:04;10.15;;;9.15;;
42094;SDS011;27753;55.724;37.612;2023-08-21T00:33:31;11.80;;;8.40;;
42094;SDS011;27753;55.724;37.612;2023-08-21T00:35:57;11.93;;;9.20;;
42094;SDS011;27753;55.724;37.612;2023-08-21T00:38:23;8.77;;;7.97;;
42094;SDS011;27753;55.724;37.612;2023-08-21T00:40:50;9.35;;;8.48;;
42094;SDS011;27753;55.724;37.612;2023-08-21T00:43:16;10.20;;;8.27;;
42094;SDS011;27753;55.724;37.612;2023-08-21T00:45:42;10.35;;;8.63;;
42094;SDS011;27753;55.724;37.612;2023-08-21T00:50:37;9.68;;;7.78;;
42094;SDS011;27753;55.724;37.612;2023-08-21T00:53:03;10.43;;;8.27;;
42094;SDS011;27753;55.724;37.612;2023-08-21T00:55:30;9.83;;;8.50;;
42094;SDS011;27753;55.724;37.612;2023-08-21T00:57:56;9.20;;;8.30;;
42094;SDS011;27753;55.724;37.612;2023-08-21T01:00:22;10.57;;;8.23;;
42094;SDS011;27753;55.724;37.612;2023-08-21T01:05:17;10.00;;;8.60;;
42094;SDS011;27753;55.724;37.612;2023-08-21T01:07:49;9.13;;;8.18;;
42094;SDS011;27753;55.724;37.612;2023-08-21T01:16:11;8.85;;;7.38;;
42094;SDS011;27753;55.724;37.612;2023-08-21T01:18:39;9.48;;;8.50;;
42094;SDS011;27753;55.724;37.612;2023-08-21T01:21:07;10.52;;;8.70;;
42094;SDS011;27753;55.724;37.612;2023-08-21T01:23:36;8.93;;;8.02;;
42094;SDS011;27753;55.724;37.612;2023-08-21T01:26:03;10.50;;;8.20;;
42094;SDS011;27753;55.724;37.612;2023-08-21T01:28:32;9.73;;;8.73;;
42094;SDS011;27753;55.724;37.612;2023-08-21T01:31:02;9.73;;;8.07;;
42094;SDS011;27753;55.724;37.612;2023-08-21T01:33:30;9.02;;;8.13;;
42094;SDS011;27753;55.724;37.612;2023-08-21T01:36:00;8.15;;;7.35;;
42094;SDS011;27753;55.724;37.612;2023-08-21T01:38:30;9.48;;;8.48;;
42094;SDS011;27753;55.724;37.612;2023-08-21T01:41:00;9.18;;;8.27;;
42094;SDS011;27753;55.724;37.612;2023-08-21T01:43:27;9.90;;;8.27;;
42094;SDS011;27753;55.724;37.612;2023-08-21T01:45:53;13.68;;;8.65;;
42094;SDS011;27753;55.724;37.612;2023-08-21T01:48:19;8.80;;;7.70;;
42094;SDS011;27753;55.724;37.612;2023-08-21T01:50:45;10.32;;;7.25;;
42094;SDS011;27753;55.724;37.612;2023-08-21T01:53:10;8.57;;;7.68;;
42094;SDS011;27753;55.724;37.612;2023-08-21T01:55:36;11.65;;;8.07;;
42094;SDS011;27753;55.724;37.612;2023-08-21T01:58:02;8.02;;;7.22;;
42094;SDS011;27753;55.724;37.612;2023-08-21T02:00:28;9.70;;;7.65;;
42094;SDS011;27753;55.724;37.612;2023-08-21T02:02:54;11.50;;;7.82;;
42094;SDS011;27753;55.724;37.612;2023-08-21T02:05:20;10.23;;;8.00;;
42094;SDS011;27753;55.724;37.612;2023-08-21T02:07:45;10.38;;;7.07;;
42094;SDS011;27753;55.724;37.612;2023-08-21T02:10:11;8.90;;;8.07;;
42094;SDS011;27753;55.724;37.612;2023-08-21T02:12:37;9.13;;;6.70;;
42094;SDS011;27753;55.724;37.612;2023-08-21T02:15:03;7.55;;;6.50;;
42094;SDS011;27753;55.724;37.612;2023-08-21T02:17:29;9.88;;;8.27;;
42094;SDS011;27753;55.724;37.612;2023-08-21T02:19:55;11.68;;;7.57;;
42094;SDS011;27753;55.724;37.612;2023-08-21T02:22:21;10.73;;;8.90;;
42094;SDS011;27753;55.724;37.612;2023-08-21T02:24:46;11.20;;;7.93;;
42094;SDS011;27753;55.724;37.612;2023-08-21T02:27:12;10.23;;;8.63;;
42094;SDS011;27753;55.724;37.612;2023-08-21T02:29:38;9.35;;;8.45;;
42094;SDS011;27753;55.724;37.612;2023-08-21T02:32:04;11.30;;;8.63;;
42094;SDS011;27753;55.724;37.612;2023-08-21T02:34:30;9.60;;;8.07;;
42094;SDS011;27753;55.724;37.612;2023-08-21T02:36:56;10.27;;;6.80;;
42094;SDS011;27753;55.724;37.612;2023-08-21T02:41:49;7.93;;;6.68;;
42094;SDS011;27753;55.724;37.612;2023-08-21T02:44:15;8.82;;;6.40;;
42094;SDS011;27753;55.724;37.612;2023-08-21T02:46:40;9.57;;;8.10;;
42094;SDS011;27753;55.724;37.612;2023-08-21T02:49:06;8.13;;;7.32;;
42094;SDS011;27753;55.724;37.612;2023-08-21T02:51:32;9.63;;;7.53;;
42094;SDS011;27753;55.724;37.612;2023-08-21T02:53:58;10.23;;;7.35;;
42094;SDS011;27753;55.724;37.612;2023-08-21T02:56:24;8.98;;;7.00;;
42094;SDS011;27753;55.724;37.612;2023-08-21T02:58:49;10.85;;;7.43;;
42094;SDS011;27753;55.724;37.612;2023-08-21T03:01:15;9.73;;;6.93;;
42094;SDS011;27753;55.724;37.612;2023-08-21T03:03:42;10.73;;;7.23;;
42094;SDS011;27753;55.724;37.612;2023-08-21T03:06:07;10.05;;;6.20;;
42094;SDS011;27753;55.724;37.612;2023-08-21T03:08:33;9.70;;;6.60;;
42094;SDS011;27753;55.724;37.612;2023-08-21T03:10:59;9.18;;;6.05;;
42094;SDS011;27753;55.724;37.612;2023-08-21T03:13:25;8.45;;;5.72;;
42094;SDS011;27753;55.724;37.612;2023-08-21T03:15:50;6.55;;;5.72;;
42094;SDS011;27753;55.724;37.612;2023-08-21T03:18:16;8.63;;;6.18;;
42094;SDS011;27753;55.724;37.612;2023-08-21T03:20:46;8.10;;;6.88;;
42094;SDS011;27753;55.724;37.612;2023-08-21T03:23:12;7.28;;;6.57;;
42094;SDS011;27753;55.724;37.612;2023-08-21T03:25:38;8.05;;;6.13;;
42094;SDS011;27753;55.724;37.612;2023-08-21T03:28:04;8.73;;;6.07;;
42094;SDS011;27753;55.724;37.612;2023-08-21T03:30:30;10.18;;;5.35;;
42094;SDS011;27753;55.724;37.612;2023-08-21T03:32:56;10.25;;;5.63;;
42094;SDS011;27753;55.724;37.612;2023-08-21T03:35:21;8.20;;;5.70;;
42094;SDS011;27753;55.724;37.612;2023-08-21T03:37:47;14.93;;;6.57;;
42094;SDS011;27753;55.724;37.612;2023-08-21T03:40:13;6.38;;;5.30;;
42094;SDS011;27753;55.724;37.612;2023-08-21T03:42:39;10.18;;;8.00;;
42094;SDS011;27753;55.724;37.612;2023-08-21T03:45:05;10.20;;;5.93;;
42094;SDS011;27753;55.724;37.612;2023-08-21T03:47:32;7.40;;;5.25;;
42094;SDS011;27753;55.724;37.612;2023-08-21T03:49:57;8.13;;;5.07;;
42094;SDS011;27753;55.724;37.612;2023-08-21T03:52:23;10.65;;;7.35;;
42094;SDS011;27753;55.724;37.612;2023-08-21T03:54:49;9.45;;;5.50;;
42094;SDS011;27753;55.724;37.612;2023-08-21T03:57:15;7.22;;;4.28;;
42094;SDS011;27753;55.724;37.612;2023-08-21T03:59:41;10.38;;;6.13;;
42094;SDS011;27753;55.724;37.612;2023-08-21T04:02:07;5.72;;;5.10;;
42094;SDS011;27753;55.724;37.612;2023-08-21T04:04:32;11.30;;;8.23;;
42094;SDS011;27753;55.724;37.612;2023-08-21T04:06:58;11.63;;;6.00;;
42094;SDS011;27753;55.724;37.612;2023-08-21T04:09:24;7.57;;;4.53;;
42094;SDS011;27753;55.724;37.612;2023-08-21T04:11:51;10.52;;;4.93;;
42094;SDS011;27753;55.724;37.612;2023-08-21T04:14:17;12.27;;;5.20;;
42094;SDS011;27753;55.724;37.612;2023-08-21T04:16:43;5.13;;;4.25;;
42094;SDS011;27753;55.724;37.612;2023-08-21T04:19:09;12.95;;;5.28;;
42094;SDS011;27753;55.724;37.612;2023-08-21T04:21:37;7.97;;;4.78;;
42094;SDS011;27753;55.724;37.612;2023-08-21T04:24:02;6.55;;;3.80;;
42094;SDS011;27753;55.724;37.612;2023-08-21T04:26:28;5.35;;;3.92;;
42094;SDS011;27753;55.724;37.612;2023-08-21T04:28:54;9.63;;;4.53;;
42094;SDS011;27753;55.724;37.612;2023-08-21T04:31:20;5.60;;;3.90;;
42094;SDS011;27753;55.724;37.612;2023-08-21T04:33:46;4.68;;;3.42;;
42094;SDS011;27753;55.724;37.612;2023-08-21T04:36:15;8.55;;;5.90;;
42094;SDS011;27753;55.724;37.612;2023-08-21T04:38:42;6.28;;;4.10;;
42094;SDS011;27753;55.724;37.612;2023-08-21T04:41:09;7.10;;;4.20;;
42094;SDS011;27753;55.724;37.612;2023-08-21T04:43:35;7.38;;;3.60;;
42094;SDS011;27753;55.724;37.612;2023-08-21T04:46:01;5.32;;;4.55;;
42094;SDS011;27753;55.724;37.612;2023-08-21T04:48:28;16.05;;;9.05;;
42094;SDS011;27753;55.724;37.612;2023-08-21T04:50:54;6.28;;;3.60;;
42094;SDS011;27753;55.724;37.612;2023-08-21T04:53:20;17.52;;;8.73;;
42094;SDS011;27753;55.724;37.612;2023-08-21T04:55:46;6.45;;;4.50;;
42094;SDS011;27753;55.724;37.612;2023-08-21T04:58:12;3.58;;;3.00;;
42094;SDS011;27753;55.724;37.612;2023-08-21T05:00:37;12.38;;;7.15;;
42094;SDS011;27753;55.724;37.612;2023-08-21T05:03:03;12.85;;;6.70;;
42094;SDS011;27753;55.724;37.612;2023-08-21T05:07:57;3.67;;;2.92;;
42094;SDS011;27753;55.724;37.612;2023-08-21T05:10:23;11.00;;;5.53;;
42094;SDS011;27753;55.724;37.612;2023-08-21T05:12:51;5.40;;;2.83;;
42094;SDS011;27753;55.724;37.612;2023-08-21T05:15:21;5.85;;;3.00;;
42094;SDS011;27753;55.724;37.612;2023-08-21T05:17:53;4.70;;;2.67;;
42094;SDS011;27753;55.724;37.612;2023-08-21T05:20:20;4.63;;;2.88;;
42094;SDS011;27753;55.724;37.612;2023-08-21T05:25:12;6.23;;;3.00;;
42094;SDS011;27753;55.724;37.612;2023-08-21T05:27:38;5.05;;;3.58;;
42094;SDS011;27753;55.724;37.612;2023-08-21T05:30:04;5.45;;;3.35;;
42094;SDS011;27753;55.724;37.612;2023-08-21T05:32:36;5.30;;;2.63;;
42094;SDS011;27753;55.724;37.612;2023-08-21T05:35:01;6.53;;;2.75;;
42094;SDS011;27753;55.724;37.612;2023-08-21T05:37:28;6.55;;;2.95;;
42094;SDS011;27753;55.724;37.612;2023-08-21T05:39:57;5.63;;;2.70;;
42094;SDS011;27753;55.724;37.612;2023-08-21T05:42:24;4.13;;;2.13;;
42094;SDS011;27753;55.724;37.612;2023-08-21T05:44:49;5.40;;;2.80;;
42094;SDS011;27753;55.724;37.612;2023-08-21T05:47:17;5.10;;;3.40;;
42094;SDS011;27753;55.724;37.612;2023-08-21T05:49:44;5.00;;;2.67;;
42094;SDS011;27753;55.724;37.612;2023-08-21T05:52:12;4.05;;;2.35;;
42094;SDS011;27753;55.724;37.612;2023-08-21T05:54:38;4.75;;;2.30;;
42094;SDS011;27753;55.724;37.612;2023-08-21T05:57:04;5.47;;;2.55;;
42094;SDS011;27753;55.724;37.612;2023-08-21T05:59:30;4.10;;;2.40;;
42094;SDS011;27753;55.724;37.612;2023-08-21T06:01:57;5.43;;;2.47;;
42094;SDS011;27753;55.724;37.612;2023-08-21T06:04:23;4.47;;;3.08;;
42094;SDS011;27753;55.724;37.612;2023-08-21T06:06:49;4.85;;;2.72;;
42094;SDS011;27753;55.724;37.612;2023-08-21T06:09:15;6.65;;;2.42;;
42094;SDS011;27753;55.724;37.612;2023-08-21T06:11:42;21.73;;;3.85;;
42094;SDS011;27753;55.724;37.612;2023-08-21T06:14:08;7.07;;;3.13;;
42094;SDS011;27753;55.724;37.612;2023-08-21T06:16:34;4.57;;;2.40;;
42094;SDS011;27753;55.724;37.612;2023-08-21T06:19:00;4.27;;;2.53;;
42094;SDS011;27753;55.724;37.612;2023-08-21T06:21:26;2.97;;;2.07;;
42094;SDS011;27753;55.724;37.612;2023-08-21T06:23:58;5.90;;;2.40;;
42094;SDS011;27753;55.724;37.612;2023-08-21T06:26:24;5.90;;;2.47;;
42094;SDS011;27753;55.724;37.612;2023-08-21T06:28:50;6.80;;;2.50;;
42094;SDS011;27753;55.724;37.612;2023-08-21T06:31:19;7.65;;;2.58;;
42094;SDS011;27753;55.724;37.612;2023-08-21T06:33:45;3.95;;;2.50;;
42094;SDS011;27753;55.724;37.612;2023-08-21T06:36:14;7.30;;;2.75;;
42094;SDS011;27753;55.724;37.612;2023-08-21T06:38:39;6.88;;;3.47;;
42094;SDS011;27753;55.724;37.612;2023-08-21T06:41:05;8.10;;;3.08;;
42094;SDS011;27753;55.724;37.612;2023-08-21T06:43:31;5.90;;;3.28;;
42094;SDS011;27753;55.724;37.612;2023-08-21T06:45:57;4.20;;;2.20;;
42094;SDS011;27753;55.724;37.612;2023-08-21T06:48:24;7.90;;;3.45;;
42094;SDS011;27753;55.724;37.612;2023-08-21T06:50:50;8.13;;;3.28;;
42094;SDS011;27753;55.724;37.612;2023-08-21T06:53:18;8.00;;;3.85;;
42094;SDS011;27753;55.724;37.612;2023-08-21T06:55:44;7.05;;;3.03;;
42094;SDS011;27753;55.724;37.612;2023-08-21T06:58:11;7.68;;;4.38;;
42094;SDS011;27753;55.724;37.612;2023-08-21T07:03:04;6.03;;;4.33;;
42094;SDS011;27753;55.724;37.612;2023-08-21T07:05:33;4.43;;;2.53;;
42094;SDS011;27753;55.724;37.612;2023-08-21T07:07:59;4.47;;;2.75;;
42094;SDS011;27753;55.724;37.612;2023-08-21T07:10:26;4.40;;;2.40;;
42094;SDS011;27753;55.724;37.612;2023-08-21T07:15:20;4.53;;;2.10;;
42094;SDS011;27753;55.724;37.612;2023-08-21T07:17:46;3.15;;;2.10;;
42094;SDS011;27753;55.724;37.612;2023-08-21T07:20:15;3.45;;;2.40;;
42094;SDS011;27753;55.724;37.612;2023-08-21T07:22:41;6.38;;;2.67;;
42094;SDS011;27753;55.724;37.612;2023-08-21T07:25:07;5.90;;;2.20;;
42094;SDS011;27753;55.724;37.612;2023-08-21T07:27:33;3.67;;;2.20;;
42094;SDS011;27753;55.724;37.612;2023-08-21T07:29:59;5.83;;;2.50;;
42094;SDS011;27753;55.724;37.612;2023-08-21T07:32:25;2.90;;;2.17;;
42094;SDS011;27753;55.724;37.612;2023-08-21T07:34:52;3.05;;;2.63;;
42094;SDS011;27753;55.724;37.612;2023-08-21T07:37:20;5.35;;;2.45;;
42094;SDS011;27753;55.724;37.612;2023-08-21T07:39:46;4.40;;;2.65;;
42094;SDS011;27753;55.724;37.612;2023-08-21T07:42:20;4.15;;;2.60;;
42094;SDS011;27753;55.724;37.612;2023-08-21T07:45:15;2.47;;;2.17;;
42094;SDS011;27753;55.724;37.612;2023-08-21T07:47:41;3.73;;;1.90;;
42094;SDS011;27753;55.724;37.612;2023-08-21T07:50:18;3.25;;;1.95;;
42094;SDS011;27753;55.724;37.612;2023-08-21T07:52:44;4.70;;;2.65;;
42094;SDS011;27753;55.724;37.612;2023-08-21T07:55:17;6.43;;;2.90;;
42094;SDS011;27753;55.724;37.612;2023-08-21T07:58:01;4.60;;;2.42;;
42094;SDS011;27753;55.724;37.612;2023-08-21T08:00:29;5.55;;;2.05;;
42094;SDS011;27753;55.724;37.612;2023-08-21T08:03:01;5.30;;;2.17;;
42094;SDS011;27753;55.724;37.612;2023-08-21T08:05:29;3.55;;;2.50;;
42094;SDS011;27753;55.724;37.612;2023-08-21T08:07:54;3.85;;;2.20;;
42094;SDS011;27753;55.724;37.612;2023-08-21T08:10:20;3.22;;;2.63;;
42094;SDS011;27753;55.724;37.612;2023-08-21T08:12:47;7.90;;;4.10;;
42094;SDS011;27753;55.724;37.612;2023-08-21T08:15:12;4.93;;;2.35;;
42094;SDS011;27753;55.724;37.612;2023-08-21T08:17:41;5.05;;;2.60;;
42094;SDS011;27753;55.724;37.612;2023-08-21T08:20:07;4.25;;;2.28;;
42094;SDS011;27753;55.724;37.612;2023-08-21T08:25:00;5.90;;;2.47;;
42094;SDS011;27753;55.724;37.612;2023-08-21T08:27:26;5.00;;;2.30;;
42094;SDS011;27753;55.724;37.612;2023-08-21T08:29:58;2.60;;;2.30;;
42094;SDS011;27753;55.724;37.612;2023-08-21T08:32:25;6.60;;;3.40;;
42094;SDS011;27753;55.724;37.612;2023-08-21T08:34:51;7.60;;;3.65;;
42094;SDS011;27753;55.724;37.612;2023-08-21T08:37:18;6.90;;;5.15;;
42094;SDS011;27753;55.724;37.612;2023-08-21T08:39:46;2.75;;;2.03;;
42094;SDS011;27753;55.724;37.612;2023-08-21T08:42:12;4.85;;;3.42;;
42094;SDS011;27753;55.724;37.612;2023-08-21T08:44:39;8.23;;;3.58;;
42094;SDS011;27753;55.724;37.612;2023-08-21T08:47:07;7.45;;;3.78;;
42094;SDS011;27753;55.724;37.612;2023-08-21T08:49:35;5.03;;;3.15;;
42094;SDS011;27753;55.724;37.612;2023-08-21T08:52:03;5.03;;;2.85;;
42094;SDS011;27753;55.724;37.612;2023-08-21T08:54:30;3.25;;;2.88;;
42094;SDS011;27753;55.724;37.612;2023-08-21T08:56:57;6.15;;;2.25;;
42094;SDS011;27753;55.724;37.612;2023-08-21T08:59:26;6.53;;;2.88;;
42094;SDS011;27753;55.724;37.612;2023-08-21T09:01:54;6.25;;;2.75;;
42094;SDS011;27753;55.724;37.612;2023-08-21T09:04:21;9.25;;;2.13;;
42094;SDS011;27753;55.724;37.612;2023-08-21T09:06:47;4.50;;;2.78;;
42094;SDS011;27753;55.724;37.612;2023-08-21T09:09:15;5.85;;;2.22;;
42094;SDS011;27753;55.724;37.612;2023-08-21T09:15:07;3.10;;;2.60;;
42094;SDS011;27753;55.724;37.612;2023-08-21T09:18:00;2.78;;;2.13;;
42094;SDS011;27753;55.724;37.612;2023-08-21T09:20:34;5.25;;;2.42;;
42094;SDS011;27753;55.724;37.612;2023-08-21T09:23:01;7.72;;;1.95;;
42094;SDS011;27753;55.724;37.612;2023-08-21T09:25:34;2.20;;;1.95;;
42094;SDS011;27753;55.724;37.612;2023-08-21T09:28:13;5.18;;;1.90;;
42094;SDS011;27753;55.724;37.612;2023-08-21T09:30:49;3.53;;;1.90;;
42094;SDS011;27753;55.724;37.612;2023-08-21T09:33:17;5.07;;;2.38;;
42094;SDS011;27753;55.724;37.612;2023-08-21T09:35:51;4.50;;;2.20;;
42094;SDS011;27753;55.724;37.612;2023-08-21T09:38:40;4.72;;;2.00;;
42094;SDS011;27753;55.724;37.612;2023-08-21T09:41:11;12.70;;;5.38;;
42094;SDS011;27753;55.724;37.612;2023-08-21T09:43:41;6.57;;;3.00;;
42094;SDS011;27753;55.724;37.612;2023-08-21T09:46:46;4.68;;;2.83;;
42094;SDS011;27753;55.724;37.612;2023-08-21T09:49:14;4.15;;;2.45;;
42094;SDS011;27753;55.724;37.612;2023-08-21T09:51:41;6.82;;;2.67;;
42094;SDS011;27753;55.724;37.612;2023-08-21T09:54:12;4.22;;;2.20;;
42094;SDS011;27753;55.724;37.612;2023-08-21T09:56:38;4.13;;;2.35;;
42094;SDS011;27753;55.724;37.612;2023-08-21T09:59:04;3.50;;;1.87;;
42094;SDS011;27753;55.724;37.612;2023-08-21T10:01:34;4.82;;;2.55;;
42094;SDS011;27753;55.724;37.612;2023-08-21T10:04:02;3.35;;;2.20;;
42094;SDS011;27753;55.724;37.612;2023-08-21T10:06:32;4.80;;;2.50;;
42094;SDS011;27753;55.724;37.612;2023-08-21T10:09:01;3.70;;;2.10;;
42094;SDS011;27753;55.724;37.612;2023-08-21T10:11:28;3.10;;;2.03;;
42094;SDS011;27753;55.724;37.612;2023-08-21T10:13:54;5.18;;;2.10;;
42094;SDS011;27753;55.724;37.612;2023-08-21T10:16:25;7.88;;;3.35;;
42094;SDS011;27753;55.724;37.612;2023-08-21T10:18:55;5.28;;;2.83;;
42094;SDS011;27753;55.724;37.612;2023-08-21T10:21:27;5.70;;;2.50;;
42094;SDS011;27753;55.724;37.612;2023-08-21T10:24:02;4.53;;;2.15;;
42094;SDS011;27753;55.724;37.612;2023-08-21T10:26:37;3.83;;;2.45;;
42094;SDS011;27753;55.724;37.612;2023-08-21T10:29:05;4.32;;;2.25;;
42094;SDS011;27753;55.724;37.612;2023-08-21T10:34:04;2.80;;;2.13;;
42094;SDS011;27753;55.724;37.612;2023-08-21T10:36:39;4.82;;;2.95;;
42094;SDS011;27753;55.724;37.612;2023-08-21T10:39:15;3.60;;;2.10;;
42094;SDS011;27753;55.724;37.612;2023-08-21T10:42:00;4.60;;;2.45;;
42094;SDS011;27753;55.724;37.612;2023-08-21T10:44:37;6.32;;;2.70;;
42094;SDS011;27753;55.724;37.612;2023-08-21T10:49:54;2.95;;;2.17;;
42094;SDS011;27753;55.724;37.612;2023-08-21T10:52:21;3.53;;;2.80;;
42094;SDS011;27753;55.724;37.612;2023-08-21T10:54:52;5.72;;;3.10;;
42094;SDS011;27753;55.724;37.612;2023-08-21T10:57:26;5.45;;;2.80;;
42094;SDS011;27753;55.724;37.612;2023-08-21T11:02:30;3.75;;;2.10;;
42094;SDS011;27753;55.724;37.612;2023-08-21T11:07:26;4.40;;;2.47;;
42094;SDS011;27753;55.724;37.612;2023-08-21T11:09:52;4.40;;;2.45;;
42094;SDS011;27753;55.724;37.612;2023-08-21T11:12:20;6.82;;;2.50;;
42094;SDS011;27753;55.724;37.612;2023-08-21T11:14:47;5.57;;;2.47;;
42094;SDS011;27753;55.724;37.612;2023-08-21T11:17:13;7.60;;;2.67;;
42094;SDS011;27753;55.724;37.612;2023-08-21T11:19:44;4.93;;;2.45;;
42094;SDS011;27753;55.724;37.612;2023-08-21T11:22:10;5.95;;;2.58;;
42094;SDS011;27753;55.724;37.612;2023-08-21T11:27:03;7.25;;;2.85;;
42094;SDS011;27753;55.724;37.612;2023-08-21T11:29:37;6.25;;;2.65;;
42094;SDS011;27753;55.724;37.612;2023-08-21T11:32:07;6.30;;;4.38;;
42094;SDS011;27753;55.724;37.612;2023-08-21T11:34:34;4.22;;;2.58;;
42094;SDS011;27753;55.724;37.612;2023-08-21T11:37:00;5.05;;;2.53;;
42094;SDS011;27753;55.724;37.612;2023-08-21T11:39:26;6.68;;;2.58;;
42094;SDS011;27753;55.724;37.612;2023-08-21T11:41:58;3.40;;;2.70;;
42094;SDS011;27753;55.724;37.612;2023-08-21T11:44:24;3.28;;;2.33;;
42094;SDS011;27753;55.724;37.612;2023-08-21T11:46:51;4.32;;;2.47;;
42094;SDS011;27753;55.724;37.612;2023-08-21T11:49:18;8.20;;;2.97;;
42094;SDS011;27753;55.724;37.612;2023-08-21T11:51:48;4.70;;;2.70;;
42094;SDS011;27753;55.724;37.612;2023-08-21T11:54:16;4.05;;;2.58;;
42094;SDS011;27753;55.724;37.612;2023-08-21T11:56:43;5.93;;;2.95;;
42094;SDS011;27753;55.724;37.612;2023-08-21T11:59:09;4.07;;;2.70;;
42094;SDS011;27753;55.724;37.612;2023-08-21T12:01:37;6.03;;;2.70;;
42094;SDS011;27753;55.724;37.612;2023-08-21T12:04:13;7.22;;;3.15;;
42094;SDS011;27753;55.724;37.612;2023-08-21T12:06:43;7.28;;;3.00;;
42094;SDS011;27753;55.724;37.612;2023-08-21T12:09:09;4.00;;;2.60;;
42094;SDS011;27753;55.724;37.612;2023-08-21T12:11:35;7.70;;;3.05;;
42094;SDS011;27753;55.724;37.612;2023-08-21T12:14:03;6.28;;;2.95;;
42094;SDS011;27753;55.724;37.612;2023-08-21T12:16:33;4.45;;;2.33;;
42094;SDS011;27753;55.724;37.612;2023-08-21T12:18:59;7.03;;;2.50;;
42094;SDS011;27753;55.724;37.612;2023-08-21T12:21:25;3.85;;;2.40;;
42094;SDS011;27753;55.724;37.612;2023-08-21T12:23:51;5.27;;;2.23;;
42094;SDS011;27753;55.724;37.612;2023-08-21T12:26:17;3.47;;;2.55;;
42094;SDS011;27753;55.724;37.612;2023-08-21T12:28:48;5.22;;;2.65;;
42094;SDS011;27753;55.724;37.612;2023-08-21T12:33:42;5.10;;;3.53;;
42094;SDS011;27753;55.724;37.612;2023-08-21T12:36:08;4.20;;;2.95;;
42094;SDS011;27753;55.724;37.612;2023-08-21T12:38:34;3.05;;;2.50;;
42094;SDS011;27753;55.724;37.612;2023-08-21T12:41:01;7.00;;;2.88;;
42094;SDS011;27753;55.724;37.612;2023-08-21T12:43:27;4.38;;;2.60;;
42094;SDS011;27753;55.724;37.612;2023-08-21T12:45:53;4.28;;;2.92;;
42094;SDS011;27753;55.724;37.612;2023-08-21T12:48:20;6.22;;;2.88;;
42094;SDS011;27753;55.724;37.612;2023-08-21T12:50:46;6.55;;;2.92;;
42094;SDS011;27753;55.724;37.612;2023-08-21T12:53:16;3.35;;;2.50;;
42094;SDS011;27753;55.724;37.612;2023-08-21T12:55:42;5.13;;;4.25;;
42094;SDS011;27753;55.724;37.612;2023-08-21T12:58:09;3.65;;;2.72;;
42094;SDS011;27753;55.724;37.612;2023-08-21T13:00:38;5.10;;;2.63;;
42094;SDS011;27753;55.724;37.612;2023-08-21T13:03:06;6.57;;;3.08;;
42094;SDS011;27753;55.724;37.612;2023-08-21T13:05:33;5.30;;;2.67;;
42094;SDS011;27753;55.724;37.612;2023-08-21T13:07:59;6.47;;;2.83;;
42094;SDS011;27753;55.724;37.612;2023-08-21T13:10:27;6.97;;;4.05;;
42094;SDS011;27753;55.724;37.612;2023-08-21T13:12:53;4.93;;;3.05;;
42094;SDS011;27753;55.724;37.612;2023-08-21T13:15:30;6.00;;;2.95;;
42094;SDS011;27753;55.724;37.612;2023-08-21T13:17:57;4.72;;;2.97;;
42094;SDS011;27753;55.724;37.612;2023-08-21T13:20:23;5.18;;;2.67;;
42094;SDS011;27753;55.724;37.612;2023-08-21T13:25:18;4.88;;;2.53;;
42094;SDS011;27753;55.724;37.612;2023-08-21T13:27:45;6.55;;;3.65;;
42094;SDS011;27753;55.724;37.612;2023-08-21T13:30:12;5.25;;;2.47;;
42094;SDS011;27753;55.724;37.612;2023-08-21T13:32:38;8.63;;;2.90;;
42094;SDS011;27753;55.724;37.612;2023-08-21T13:35:05;5.32;;;2.38;;
42094;SDS011;27753;55.724;37.612;2023-08-21T13:37:33;4.15;;;2.53;;
42094;SDS011;27753;55.724;37.612;2023-08-21T13:39:59;7.07;;;3.50;;
42094;SDS011;27753;55.724;37.612;2023-08-21T13:42:30;7.90;;;2.95;;
42094;SDS011;27753;55.724;37.612;2023-08-21T13:44:59;5.70;;;2.80;;
42094;SDS011;27753;55.724;37.612;2023-08-21T13:47:25;5.00;;;3.28;;
42094;SDS011;27753;55.724;37.612;2023-08-21T13:49:51;3.75;;;3.00;;
42094;SDS011;27753;55.724;37.612;2023-08-21T13:52:17;8.77;;;3.22;;
42094;SDS011;27753;55.724;37.612;2023-08-21T13:57:10;5.63;;;2.95;;
42094;SDS011;27753;55.724;37.612;2023-08-21T13:59:37;7.78;;;2.78;;
42094;SDS011;27753;55.724;37.612;2023-08-21T14:02:04;7.25;;;3.05;;
42094;SDS011;27753;55.724;37.612;2023-08-21T14:04:31;5.30;;;2.88;;
42094;SDS011;27753;55.724;37.612;2023-08-21T14:06:57;5.47;;;3.45;;
42094;SDS011;27753;55.724;37.612;2023-08-21T14:09:23;6.30;;;2.90;;
42094;SDS011;27753;55.724;37.612;2023-08-21T14:11:52;6.53;;;2.50;;
42094;SDS011;27753;55.724;37.612;2023-08-21T14:14:18;6.85;;;3.30;;
42094;SDS011;27753;55.724;37.612;2023-08-21T14:16:44;7.45;;;3.40;;
42094;SDS011;27753;55.724;37.612;2023-08-21T14:19:10;4.90;;;2.38;;
42094;SDS011;27753;55.724;37.612;2023-08-21T14:21:36;4.65;;;2.65;;
42094;SDS011;27753;55.724;37.612;2023-08-21T14:24:01;4.43;;;2.28;;
42094;SDS011;27753;55.724;37.612;2023-08-21T14:26:27;3.78;;;2.70;;
42094;SDS011;27753;55.724;37.612;2023-08-21T14:28:59;4.75;;;2.40;;
42094;SDS011;27753;55.724;37.612;2023-08-21T14:31:34;7.75;;;2.63;;
42094;SDS011;27753;55.724;37.612;2023-08-21T14:34:00;4.93;;;2.90;;
42094;SDS011;27753;55.724;37.612;2023-08-21T14:36:26;6.18;;;2.42;;
42094;SDS011;27753;55.724;37.612;2023-08-21T14:38:52;5.60;;;3.13;;
42094;SDS011;27753;55.724;37.612;2023-08-21T14:41:21;8.05;;;3.33;;
42094;SDS011;27753;55.724;37.612;2023-08-21T14:43:47;5.95;;;3.00;;
42094;SDS011;27753;55.724;37.612;2023-08-21T14:46:13;5.43;;;2.25;;
42094;SDS011;27753;55.724;37.612;2023-08-21T14:48:41;8.00;;;2.67;;
42094;SDS011;27753;55.724;37.612;2023-08-21T14:51:13;5.18;;;2.63;;
42094;SDS011;27753;55.724;37.612;2023-08-21T14:53:39;3.25;;;2.40;;
42094;SDS011;27753;55.724;37.612;2023-08-21T14:56:06;8.38;;;2.80;;
42094;SDS011;27753;55.724;37.612;2023-08-21T14:58:32;4.10;;;2.28;;
42094;SDS011;27753;55.724;37.612;2023-08-21T15:00:59;5.95;;;2.70;;
42094;SDS011;27753;55.724;37.612;2023-08-21T15:03:25;4.60;;;3.17;;
42094;SDS011;27753;55.724;37.612;2023-08-21T15:05:52;5.40;;;3.00;;
42094;SDS011;27753;55.724;37.612;2023-08-21T15:08:18;5.63;;;2.80;;
42094;SDS011;27753;55.724;37.612;2023-08-21T15:10:44;5.30;;;2.83;;
42094;SDS011;27753;55.724;37.612;2023-08-21T15:13:09;4.82;;;2.95;;
42094;SDS011;27753;55.724;37.612;2023-08-21T15:15:35;7.07;;;2.33;;
42094;SDS011;27753;55.724;37.612;2023-08-21T15:20:28;4.22;;;2.55;;
42094;SDS011;27753;55.724;37.612;2023-08-21T15:22:54;4.82;;;2.50;;
42094;SDS011;27753;55.724;37.612;2023-08-21T15:25:20;4.45;;;2.42;;
42094;SDS011;27753;55.724;37.612;2023-08-21T15:27:46;4.93;;;2.33;;